Time;durP1;ratioP1;P1;durP2;ratioP2;P2;SDS_P1;SDS_P2;PMS_P1;PMS_P2;Temp;Humidity;BMP_temperature;BMP_pressure;BME280_temperature;BME280_humidity;BME280_pressure;Samples;Min_cycle;Max_cycle;Signal;HPM_P1;HPM_P2
2022/07/12 00:00:29;;;;;;;5.40;4.07;;;;;;;15.01;100.00;101420.78;8296690;28;20088;-58
2022/07/12 00:04:30;;;;;;;5.75;5.10;;;;;;;15.00;100.00;101414.47;8323459;28;20041;-57
2022/07/12 00:08:30;;;;;;;5.18;3.92;;;;;;;15.10;100.00;101418.03;8323901;28;20509;-57
2022/07/12 00:12:31;;;;;;;4.10;3.70;;;;;;;14.85;100.00;101421.38;8324949;28;20041;-57
2022/07/12 00:16:31;;;;;;;5.15;4.57;;;;;;;14.75;100.00;101415.09;8324583;28;20505;-58
2022/07/12 00:20:32;;;;;;;6.50;5.03;;;;;;;14.70;100.00;101422.00;8323395;28;20041;-58
2022/07/12 00:24:33;;;;;;;7.32;6.63;;;;;;;14.81;100.00;101421.81;8304403;28;20100;-58
2022/07/12 00:28:33;;;;;;;6.25;5.65;;;;;;;14.78;100.00;101414.81;8303791;28;20477;-58
2022/07/12 00:32:33;;;;;;;7.03;5.78;;;;;;;14.73;100.00;101417.09;8298749;28;20034;-58
2022/07/12 00:36:34;;;;;;;7.63;6.38;;;;;;;14.68;100.00;101413.97;8299329;28;20512;-58
2022/07/12 00:40:34;;;;;;;9.18;6.60;;;;;;;14.63;100.00;101419.00;8297889;28;20164;-58
2022/07/12 00:44:35;;;;;;;11.70;6.40;;;;;;;14.65;100.00;101413.41;8298202;28;20031;-58
2022/07/12 00:48:36;;;;;;;7.57;6.80;;;;;;;14.58;100.00;101407.66;8304913;28;20116;-57
2022/07/12 00:52:37;;;;;;;8.63;6.82;;;;;;;14.57;100.00;101405.97;8299577;28;20029;-58
2022/07/12 00:56:39;;;;;;;8.50;7.13;;;;;;;14.48;100.00;101404.09;8332913;28;20095;-58
2022/07/12 01:00:40;;;;;;;11.63;7.80;;;;;;;14.40;100.00;101393.09;8303438;28;20033;-57
2022/07/12 01:04:43;;;;;;;13.95;8.48;;;;;;;14.29;100.00;101395.06;8315710;28;20113;-57
2022/07/12 01:08:43;;;;;;;9.65;7.85;;;;;;;14.12;100.00;101388.44;8327376;28;20183;-58
2022/07/12 01:12:43;;;;;;;7.63;6.82;;;;;;;14.00;100.00;101388.75;8328292;28;20042;-57
2022/07/12 01:16:44;;;;;;;8.88;7.22;;;;;;;13.92;100.00;101392.16;8328897;28;20111;-58
2022/07/12 01:20:45;;;;;;;7.90;7.10;;;;;;;13.92;100.00;101385.84;8322760;28;20486;-58
2022/07/12 01:24:46;;;;;;;9.57;7.68;;;;;;;13.87;100.00;101386.28;8298874;28;20429;-58
2022/07/12 01:28:47;;;;;;;10.23;6.93;;;;;;;13.83;100.00;101379.41;8299518;28;20461;-58
2022/07/12 01:32:48;;;;;;;9.25;6.95;;;;;;;13.66;100.00;101374.63;8297322;28;20494;-58
2022/07/12 01:36:48;;;;;;;9.85;6.57;;;;;;;13.61;100.00;101371.50;8296783;28;20437;-57
2022/07/12 01:40:49;;;;;;;7.85;7.05;;;;;;;13.55;100.00;101383.75;8296266;28;20038;-58
2022/07/12 01:44:50;;;;;;;8.95;7.40;;;;;;;13.47;100.00;101390.88;8296620;28;20094;-58
2022/07/12 01:48:51;;;;;;;10.60;6.47;;;;;;;13.27;100.00;101391.84;8295949;28;20405;-58
2022/07/12 01:52:52;;;;;;;9.97;7.57;;;;;;;13.28;100.00;101382.69;8302544;28;20059;-58
2022/07/12 01:56:52;;;;;;;8.18;6.80;;;;;;;13.36;100.00;101393.72;8296528;28;20273;-58
2022/07/12 02:00:53;;;;;;;9.07;6.55;;;;;;;13.21;100.00;101395.09;8318374;28;20926;-57
2022/07/12 02:04:54;;;;;;;17.67;7.50;;;;;;;13.21;100.00;101395.09;8327086;28;20040;-58
2022/07/12 02:08:55;;;;;;;9.38;7.65;;;;;;;13.13;100.00;101397.63;8326734;28;20072;-58
2022/07/12 02:12:55;;;;;;;12.90;8.48;;;;;;;13.16;100.00;101400.06;8327427;28;20033;-58
2022/07/12 02:16:55;;;;;;;16.48;9.15;;;;;;;13.15;100.00;101406.50;8327296;28;20041;-58
2022/07/12 02:20:56;;;;;;;12.07;9.45;;;;;;;13.18;100.00;101401.63;8326976;28;20038;-57
2022/07/12 02:24:56;;;;;;;17.67;12.03;;;;;;;13.26;100.00;101404.53;8299931;28;20061;-58
2022/07/12 02:28:57;;;;;;;17.40;11.45;;;;;;;13.25;100.00;101410.09;8296458;28;20634;-58
2022/07/12 02:32:57;;;;;;;20.02;12.88;;;;;;;13.32;100.00;101408.56;8295074;28;20402;-57
2022/07/12 02:36:58;;;;;;;18.37;12.40;;;;;;;13.30;100.00;101411.41;8294050;28;20041;-58
2022/07/12 02:40:58;;;;;;;18.50;13.00;;;;;;;13.27;100.00;101410.84;8299297;28;20653;-58
2022/07/12 02:44:58;;;;;;;19.67;13.43;;;;;;;13.20;100.00;101413.22;8294660;28;20405;-55
2022/07/12 02:48:59;;;;;;;18.67;12.73;;;;;;;13.18;100.00;101417.09;8293585;28;20383;-58
2022/07/12 02:52:59;;;;;;;19.08;12.05;;;;;;;13.18;100.00;101427.94;8298679;28;20049;-58
2022/07/12 02:56:59;;;;;;;19.10;12.10;;;;;;;13.01;100.00;101421.28;8294684;28;20062;-58
2022/07/12 03:01:00;;;;;;;19.67;13.13;;;;;;;12.87;100.00;101412.59;8301601;28;20283;-57
2022/07/12 03:05:00;;;;;;;18.23;12.65;;;;;;;12.84;100.00;101418.28;8325529;28;20751;-57
2022/07/12 03:09:01;;;;;;;21.20;13.50;;;;;;;12.78;100.00;101419.66;8325054;28;20045;-58
2022/07/12 03:13:02;;;;;;;20.27;12.85;;;;;;;12.88;100.00;101419.72;8326135;28;20060;-57
2022/07/12 03:17:02;;;;;;;21.33;12.95;;;;;;;12.91;100.00;101419.47;8308374;28;20041;-58
2022/07/12 03:21:02;;;;;;;20.35;13.18;;;;;;;12.75;100.00;101419.91;8293800;28;20052;-56
2022/07/12 03:25:04;;;;;;;18.65;12.57;;;;;;;12.67;100.00;101410.72;8300348;28;20045;-58
2022/07/12 03:29:05;;;;;;;19.27;13.25;;;;;;;12.84;100.00;101410.16;8299531;28;20092;-58
2022/07/12 03:33:06;;;;;;;19.88;12.55;;;;;;;12.89;100.00;101416.00;8293701;28;20421;-58
2022/07/12 03:37:06;;;;;;;22.30;14.57;;;;;;;12.97;100.00;101419.81;8294327;28;20057;-58
2022/07/12 03:41:07;;;;;;;22.33;14.30;;;;;;;12.93;100.00;101423.75;8293009;28;20048;-58
2022/07/12 03:45:08;;;;;;;21.48;14.20;;;;;;;12.90;100.00;101424.03;8293871;28;20133;-57
2022/07/12 03:49:08;;;;;;;21.13;15.05;;;;;;;12.85;100.00;101420.00;8293232;28;20038;-58
2022/07/12 03:53:09;;;;;;;23.27;14.00;;;;;;;12.87;100.00;101428.88;8295349;28;20502;-58
2022/07/12 03:57:16;;;;;;;21.67;13.90;;;;;;;12.85;100.00;101430.84;8297339;28;20050;-57
2022/07/12 04:01:17;;;;;;;19.27;13.02;;;;;;;12.88;100.00;101430.59;8303667;28;20040;-57
2022/07/12 04:05:17;;;;;;;22.48;13.80;;;;;;;12.92;100.00;101437.47;8331190;28;20037;-58
2022/07/12 04:09:17;;;;;;;23.27;15.25;;;;;;;12.98;100.00;101431.50;8330805;28;20041;-57
2022/07/12 04:13:18;;;;;;;23.38;14.75;;;;;;;13.05;100.00;101433.59;8331488;28;20116;-57
2022/07/12 04:17:18;;;;;;;24.70;14.85;;;;;;;13.10;100.00;101435.91;8331317;28;20041;-58
2022/07/12 04:21:19;;;;;;;26.13;16.30;;;;;;;13.10;100.00;101442.19;8331085;28;20037;-58
2022/07/12 04:25:19;;;;;;;28.88;15.25;;;;;;;13.18;100.00;101450.50;8303309;28;20494;-58
2022/07/12 04:29:20;;;;;;;22.08;15.07;;;;;;;13.15;100.00;101449.94;8302863;28;20096;-58
2022/07/12 04:33:21;;;;;;;21.85;14.95;;;;;;;13.28;100.00;101456.00;8299196;28;20030;-58
2022/07/12 04:37:21;;;;;;;26.02;16.85;;;;;;;13.37;100.00;101455.19;8298790;28;20036;-57
2022/07/12 04:41:22;;;;;;;29.17;17.00;;;;;;;13.54;100.00;101457.25;8298055;28;20049;-58
2022/07/12 04:45:22;;;;;;;24.80;16.85;;;;;;;13.61;100.00;101453.03;8298489;28;20111;-58
2022/07/12 04:49:23;;;;;;;21.40;15.82;;;;;;;13.86;100.00;101457.97;8298185;28;20041;-57
2022/07/12 04:53:23;;;;;;;23.77;14.80;;;;;;;13.92;100.00;101460.13;8320265;28;20536;-57
2022/07/12 04:57:24;;;;;;;22.02;14.75;;;;;;;14.05;100.00;101458.00;8327590;28;20122;-58
2022/07/12 05:01:25;;;;;;;23.50;14.45;;;;;;;14.30;100.00;101457.50;8308182;28;20128;-57
2022/07/12 05:05:25;;;;;;;21.92;14.45;;;;;;;14.45;100.00;101458.81;8328954;28;20405;-58
2022/07/12 05:09:25;;;;;;;22.48;14.65;;;;;;;14.49;100.00;101462.94;8329451;28;20111;-57
2022/07/12 05:13:26;;;;;;;21.55;13.95;;;;;;;14.48;100.00;101460.38;8327937;28;20087;-58
2022/07/12 05:17:26;;;;;;;25.17;14.18;;;;;;;14.57;100.00;101438.63;8328395;28;20051;-58
2022/07/12 05:21:27;;;;;;;26.05;15.40;;;;;;;14.85;100.00;101443.16;8329007;28;20436;-58
2022/07/12 05:25:27;;;;;;;27.30;14.00;;;;;;;15.06;100.00;101449.31;8319523;28;20049;-57
2022/07/12 05:29:28;;;;;;;27.30;15.48;;;;;;;15.35;100.00;101452.81;8294293;28;20092;-58
2022/07/12 05:33:44;;;;;;;25.03;14.37;;;;;;;15.67;100.00;101452.41;8297079;28;20050;-58
2022/07/12 05:37:45;;;;;;;25.05;13.93;;;;;;;15.85;100.00;101457.94;8295960;28;20280;-57
2022/07/12 05:41:46;;;;;;;22.13;13.68;;;;;;;16.21;100.00;101462.44;8297352;28;20034;-58
2022/07/12 05:45:46;;;;;;;28.20;15.15;;;;;;;16.57;100.00;101470.56;8298315;28;20038;-58
2022/07/12 05:49:47;;;;;;;24.05;13.75;;;;;;;16.86;100.00;101465.69;8296218;28;20042;-58
2022/07/12 05:53:47;;;;;;;18.45;12.43;;;;;;;17.28;100.00;101472.19;8300621;28;20046;-57
2022/07/12 05:57:48;;;;;;;18.65;13.20;;;;;;;17.31;100.00;101481.94;8300200;28;20034;-58
2022/07/12 06:01:48;;;;;;;21.02;13.65;;;;;;;17.40;100.00;101479.09;8306104;28;20075;-58
2022/07/12 06:05:48;;;;;;;23.50;14.38;;;;;;;17.47;100.00;101468.38;8327544;28;20041;-58
2022/07/12 06:09:49;;;;;;;26.53;13.93;;;;;;;17.46;100.00;101464.81;8327145;28;20095;-58
2022/07/12 06:13:50;;;;;;;21.07;15.43;;;;;;;17.51;100.00;101467.06;8327642;28;20360;-58
2022/07/12 06:17:50;;;;;;;26.20;15.55;;;;;;;17.73;100.00;101466.50;8324951;28;20040;-57
2022/07/12 06:21:51;;;;;;;24.60;15.30;;;;;;;18.42;100.00;101464.38;8327416;28;20037;-57
2022/07/12 06:25:51;;;;;;;23.70;14.33;;;;;;;18.62;99.72;101468.53;8297686;28;20034;-58
2022/07/12 06:29:51;;;;;;;20.70;14.10;;;;;;;18.78;99.98;101487.72;8301607;28;20761;-58
2022/07/12 06:33:52;;;;;;;24.33;15.02;;;;;;;18.87;97.76;101492.16;8295601;28;20044;-58
2022/07/12 06:37:52;;;;;;;24.92;16.02;;;;;;;19.02;98.31;101495.94;8295127;28;20034;-58
2022/07/12 06:41:52;;;;;;;19.90;13.90;;;;;;;19.86;94.89;101506.47;8294750;28;20038;-57
2022/07/12 06:45:53;;;;;;;21.27;14.60;;;;;;;20.33;90.59;101526.56;8295472;28;20041;-57
2022/07/12 06:49:53;;;;;;;21.05;13.02;;;;;;;20.66;89.87;101517.97;8294521;28;20273;-58
2022/07/12 06:53:54;;;;;;;24.17;14.15;;;;;;;21.10;87.81;101532.81;8296421;28;20445;-58
2022/07/12 06:57:54;;;;;;;23.65;14.13;;;;;;;21.25;86.84;101524.59;8294786;28;20486;-58
2022/07/12 07:01:57;;;;;;;16.67;13.18;;;;;;;21.75;84.50;101519.34;8305773;28;20393;-58
2022/07/12 07:05:57;;;;;;;21.27;13.68;;;;;;;21.42;85.72;101520.66;8325134;28;20037;-57
2022/07/12 07:09:57;;;;;;;19.77;13.77;;;;;;;21.34;86.08;101531.75;8324772;28;20044;-58
2022/07/12 07:13:58;;;;;;;18.23;12.38;;;;;;;21.72;85.25;101538.94;8323113;28;20289;-58
2022/07/12 07:17:58;;;;;;;15.67;12.20;;;;;;;21.63;85.10;101540.06;8323263;28;20460;-58
2022/07/12 07:21:59;;;;;;;16.60;12.05;;;;;;;22.70;81.44;101541.22;8324185;28;20299;-59
2022/07/12 07:25:59;;;;;;;13.27;9.75;;;;;;;22.97;79.50;101542.38;8293494;28;20459;-58
2022/07/12 07:31:01;;;;;;;14.32;9.93;;;;;;;23.06;79.18;101536.50;8297835;28;20176;-58
2022/07/12 07:34:20;;;;;;;19.48;11.68;;;;;;;22.81;80.72;101526.91;8319915;28;20033;-58
2022/07/12 07:38:20;;;;;;;14.43;10.35;;;;;;;22.99;78.42;101530.09;8324707;28;20442;-59
2022/07/12 07:42:20;;;;;;;14.63;10.47;;;;;;;22.91;77.91;101526.59;8308506;28;20045;-58
2022/07/12 07:46:21;;;;;;;10.73;9.05;;;;;;;23.19;78.55;101538.56;8293654;28;20336;-58
2022/07/12 07:50:21;;;;;;;9.87;7.87;;;;;;;23.29;76.84;101541.03;8301648;28;20128;-59
2022/07/12 07:54:22;;;;;;;12.73;8.93;;;;;;;23.48;77.08;101534.81;8317256;28;20269;-58
2022/07/12 07:58:22;;;;;;;11.88;9.02;;;;;;;23.35;76.53;101535.56;8320194;28;20395;-58
2022/07/12 08:02:23;;;;;;;10.82;9.65;;;;;;;23.49;74.88;101533.75;8307795;28;20559;-58
2022/07/12 08:06:23;;;;;;;9.40;8.40;;;;;;;23.90;73.58;101534.69;8317337;28;20033;-58
2022/07/12 08:10:24;;;;;;;12.53;10.40;;;;;;;23.80;73.72;101539.75;8283296;28;20641;-58
2022/07/12 08:14:25;;;;;;;10.02;8.20;;;;;;;23.81;72.90;101535.91;8283892;28;20633;-58
2022/07/12 08:18:26;;;;;;;10.93;8.65;;;;;;;23.92;72.98;101527.94;8291755;28;20046;-58
2022/07/12 08:22:26;;;;;;;12.27;9.73;;;;;;;23.76;72.98;101527.41;8284910;28;20041;-58
2022/07/12 08:26:27;;;;;;;10.57;8.50;;;;;;;24.00;72.70;101525.03;8282498;28;20057;-58
2022/07/12 08:30:27;;;;;;;11.55;8.48;;;;;;;24.18;71.87;101535.56;8285833;28;20273;-58
2022/07/12 08:34:29;;;;;;;6.88;6.20;;;;;;;24.48;71.21;101524.00;8280563;28;20030;-58
2022/07/12 08:38:30;;;;;;;8.60;6.82;;;;;;;24.41;69.80;101525.91;8281320;28;20092;-58
2022/07/12 08:42:32;;;;;;;6.63;5.88;;;;;;;24.65;68.31;101524.53;8293871;28;20041;-58
2022/07/12 08:46:33;;;;;;;9.18;7.00;;;;;;;24.99;68.62;101516.13;8281378;28;20495;-58
2022/07/12 08:50:34;;;;;;;6.97;5.20;;;;;;;24.83;66.53;101522.88;8287412;28;20041;-58
2022/07/12 08:54:41;;;;;;;6.10;5.03;;;;;;;25.17;65.79;101515.50;8289872;28;20398;-58
2022/07/12 08:58:42;;;;;;;12.90;8.75;;;;;;;25.42;66.15;101506.38;8290242;28;20038;-58
2022/07/12 09:02:59;;;;;;;9.38;6.85;;;;;;;24.88;65.71;101513.94;8302405;28;20520;-58
2022/07/12 09:07:13;;;;;;;6.03;5.43;;;;;;;25.09;65.55;101508.25;8315249;28;20332;-58
2022/07/12 09:11:16;;;;;;;7.85;7.05;;;;;;;25.00;64.90;101503.97;8296488;28;20073;-58
2022/07/12 09:15:19;;;;;;;9.20;7.35;;;;;;;25.62;64.31;101501.69;8284702;28;20060;-60
2022/07/12 09:19:19;;;;;;;8.10;5.97;;;;;;;25.71;64.26;101500.38;8285572;28;20041;-58
2022/07/12 09:23:20;;;;;;;5.15;4.65;;;;;;;25.80;63.80;101488.00;8304417;28;20042;-58
2022/07/12 09:27:27;;;;;;;4.87;3.83;;;;;;;25.97;62.00;101489.25;8297426;28;20038;-58
2022/07/12 09:31:38;;;;;;;8.40;5.10;;;;;;;25.58;60.80;101486.56;8296399;28;20273;-58
2022/07/12 09:36:12;;;;;;;6.50;5.30;;;;;;;25.77;62.12;101488.44;8293225;28;20076;-58
2022/07/12 09:40:00;;;;;;;5.78;5.07;;;;;;;25.99;61.60;101484.38;8289006;28;20049;-58
2022/07/12 09:44:02;;;;;;;7.07;6.13;;;;;;;26.04;61.48;101483.75;8294663;28;20041;-58
2022/07/12 09:48:04;;;;;;;6.25;4.32;;;;;;;26.00;61.11;101483.31;8288244;28;20050;-58
2022/07/12 09:52:06;;;;;;;10.50;4.80;;;;;;;26.02;59.96;101486.72;8304775;28;20042;-57
2022/07/12 09:56:10;;;;;;;28.30;6.38;;;;;;;26.44;60.50;101494.44;8286659;28;20180;-58
2022/07/12 10:00:11;;;;;;;10.63;6.87;;;;;;;26.49;62.17;101491.88;8286267;28;20042;-57
2022/07/12 10:04:14;;;;;;;7.60;5.45;;;;;;;27.34;58.75;101501.63;8291072;28;20878;-57
2022/07/12 10:08:15;;;;;;;6.47;3.88;;;;;;;28.84;56.52;101495.25;8290495;28;20418;-57
2022/07/12 10:12:17;;;;;;;4.32;3.65;;;;;;;30.57;52.07;101492.59;8298776;28;20042;-56
2022/07/12 10:16:26;;;;;;;4.35;3.95;;;;;;;30.95;51.80;101497.56;8295587;28;20375;-56
2022/07/12 10:20:27;;;;;;;2.80;2.60;;;;;;;31.94;46.99;101509.72;8287833;28;20033;-55
2022/07/12 10:29:06;;;;;;;4.72;2.75;;;;;;;32.40;45.47;101490.75;8364173;27;20387;-56
2022/07/12 10:33:15;;;;;;;3.70;3.40;;;;;;;31.71;46.08;101500.63;8321976;28;20080;-54
2022/07/12 10:37:16;;;;;;;3.80;2.00;;;;;;;32.38;43.03;101491.00;8307765;28;20049;-56
2022/07/12 10:41:20;;;;;;;4.22;3.92;;;;;;;33.78;45.14;101500.06;8307097;28;20446;-56
2022/07/12 10:45:23;;;;;;;3.55;2.95;;;;;;;33.96;45.46;101491.25;8310716;28;20095;-55
2022/07/12 10:49:26;;;;;;;3.90;3.60;;;;;;;34.55;42.23;101489.06;8310213;28;20500;-56
2022/07/12 10:53:37;;;;;;;3.35;2.50;;;;;;;34.77;43.04;101498.13;8311672;28;20417;-55
2022/07/12 11:01:55;;;;;;;2.45;1.70;;;;;;;34.52;42.94;101481.19;8322321;27;20962;-57
2022/07/12 11:06:03;;;;;;;1.85;1.58;;;;;;;34.68;39.92;101477.28;8299784;28;20065;-56
2022/07/12 11:10:04;;;;;;;2.25;1.17;;;;;;;34.73;41.48;101480.97;8278589;28;20522;-56
2022/07/12 11:14:05;;;;;;;2.03;0.77;;;;;;;33.58;40.65;101478.34;8292680;28;20409;-56
2022/07/12 11:18:05;;;;;;;1.42;1.30;;;;;;;33.68;41.98;101478.41;8306058;28;20041;-56
2022/07/12 11:22:06;;;;;;;1.70;1.60;;;;;;;33.78;42.18;101472.84;8292914;28;20054;-56
2022/07/12 11:26:07;;;;;;;3.53;1.98;;;;;;;33.90;43.86;101476.34;8296423;28;20395;-56
2022/07/12 11:30:08;;;;;;;4.82;2.35;;;;;;;34.93;41.45;101463.31;8293455;28;20041;-55
2022/07/12 11:34:25;;;;;;;2.15;1.50;;;;;;;33.71;41.73;101460.19;8298809;28;20088;-54
2022/07/12 11:38:26;;;;;;;2.30;1.38;;;;;;;33.76;39.99;101452.63;8295537;28;20068;-56
2022/07/12 11:42:27;;;;;;;5.65;1.67;;;;;;;34.74;40.96;101448.94;8299582;28;20354;-55
2022/07/12 11:46:27;;;;;;;2.53;2.20;;;;;;;35.17;40.79;101442.00;8292047;28;20131;-56
2022/07/12 11:50:30;;;;;;;3.33;3.00;;;;;;;33.88;41.46;101439.25;8296609;28;20029;-54
2022/07/12 11:54:30;;;;;;;3.08;2.10;;;;;;;34.50;40.90;101438.44;8292041;28;20469;-57
2022/07/12 11:58:32;;;;;;;2.20;1.70;;;;;;;33.88;41.89;101441.25;8289661;28;20064;-56
2022/07/12 12:02:33;;;;;;;2.05;1.88;;;;;;;33.03;42.44;101440.53;8293662;28;20038;-56
2022/07/12 12:06:33;;;;;;;2.83;1.60;;;;;;;34.25;40.94;101427.09;8292629;28;20037;-57
2022/07/12 12:10:34;;;;;;;2.35;1.60;;;;;;;34.31;39.67;101428.81;8290363;28;20281;-56
2022/07/12 12:14:34;;;;;;;1.15;0.90;;;;;;;33.05;40.37;101427.91;8275386;28;20049;-56
2022/07/12 12:18:40;;;;;;;1.77;1.15;;;;;;;31.54;42.57;101418.69;8274067;28;20383;-56
2022/07/12 12:22:40;;;;;;;4.38;1.80;;;;;;;30.22;45.84;101408.97;8272306;28;20441;-56
2022/07/12 12:26:40;;;;;;;2.47;1.92;;;;;;;29.07;47.31;101402.59;8270141;28;20093;-54
2022/07/12 12:30:56;;;;;;;1.80;1.40;;;;;;;29.32;48.16;101404.06;8264767;28;20098;-55
2022/07/12 12:35:13;;;;;;;1.58;1.38;;;;;;;29.46;46.67;101402.72;8267611;28;20269;-56
2022/07/12 12:39:29;;;;;;;1.35;1.25;;;;;;;29.60;46.97;101394.97;8269765;28;20054;-56
2022/07/12 12:43:29;;;;;;;2.15;1.48;;;;;;;29.71;45.90;101395.00;8265206;28;20117;-55
2022/07/12 12:47:31;;;;;;;2.75;1.48;;;;;;;29.54;45.53;101399.59;8264874;28;20042;-52
2022/07/12 12:51:32;;;;;;;1.17;1.00;;;;;;;29.93;45.72;101403.56;8270530;28;20049;-56
2022/07/12 12:55:32;;;;;;;2.00;1.33;;;;;;;29.34;47.72;101387.97;8269215;28;20049;-56
2022/07/12 12:59:34;;;;;;;1.70;1.00;;;;;;;29.40;44.83;101386.97;8269748;28;20168;-56
2022/07/12 13:03:34;;;;;;;2.58;1.10;;;;;;;28.97;45.23;101380.84;8271959;28;20046;-53
2022/07/12 13:07:35;;;;;;;1.42;0.93;;;;;;;29.71;45.14;101375.50;8275259;28;20045;-55
2022/07/12 13:11:35;;;;;;;1.83;0.90;;;;;;;30.01;44.88;101373.31;8272817;28;20034;-55
2022/07/12 13:15:37;;;;;;;1.33;1.20;;;;;;;29.73;45.67;101376.06;8277040;28;20050;-56
2022/07/12 13:19:37;;;;;;;2.30;0.98;;;;;;;29.52;44.49;101379.47;8278465;28;20712;-55
2022/07/12 13:23:38;;;;;;;1.20;1.10;;;;;;;29.26;44.97;101373.53;8270076;28;20067;-55
2022/07/12 13:27:39;;;;;;;1.37;1.00;;;;;;;29.44;44.81;101370.63;8270529;28;20095;-55
2022/07/12 13:31:41;;;;;;;1.15;1.00;;;;;;;29.40;45.01;101373.03;8288440;28;20041;-55
2022/07/12 13:35:42;;;;;;;1.35;1.08;;;;;;;29.58;44.89;101369.28;8277161;28;20052;-54
2022/07/12 13:40:43;;;;;;;1.35;1.10;;;;;;;29.86;44.27;101367.47;8265157;28;20042;-56
2022/07/12 13:44:03;;;;;;;2.38;1.27;;;;;;;29.62;43.92;101359.38;8272063;28;20435;-55
2022/07/12 13:48:04;;;;;;;2.50;1.38;;;;;;;29.68;44.75;101356.47;8263086;28;20046;-55
2022/07/12 13:52:05;;;;;;;2.50;1.17;;;;;;;30.05;44.09;101352.22;8259053;28;20087;-54
2022/07/12 13:56:06;;;;;;;4.97;1.40;;;;;;;30.53;45.22;101348.16;8254129;28;20060;-55
2022/07/12 14:00:11;;;;;;;4.32;1.10;;;;;;;30.07;44.11;101350.03;8278627;28;20057;-54
2022/07/12 14:04:11;;;;;;;3.22;1.15;;;;;;;30.33;44.67;101349.47;8271194;28;20572;-55
2022/07/12 14:08:12;;;;;;;2.30;1.25;;;;;;;30.11;44.96;101348.44;8270403;28;20416;-56
2022/07/12 14:12:13;;;;;;;3.53;1.00;;;;;;;29.81;44.23;101345.03;8272974;28;20062;-55
2022/07/12 14:16:13;;;;;;;5.78;1.63;;;;;;;29.59;46.88;101338.38;8273479;28;20165;-55
2022/07/12 14:20:17;;;;;;;5.35;1.15;;;;;;;30.01;45.26;101337.06;8274047;28;20041;-54
2022/07/12 14:24:18;;;;;;;6.07;1.20;;;;;;;30.07;43.51;101340.81;8263806;28;20088;-55
2022/07/12 14:28:18;;;;;;;3.92;1.05;;;;;;;29.72;45.32;101338.13;8261668;28;20049;-56
2022/07/12 14:32:18;;;;;;;1.50;1.00;;;;;;;30.17;46.75;101333.50;8259747;28;20425;-55
2022/07/12 14:36:19;;;;;;;3.75;1.25;;;;;;;29.99;45.22;101332.84;8262018;28;20183;-56
2022/07/12 14:40:19;;;;;;;1.73;1.05;;;;;;;29.98;44.63;101329.19;8276322;28;20364;-56
2022/07/12 14:44:21;;;;;;;5.68;1.20;;;;;;;29.90;43.29;101331.53;8267729;28;20046;-56
2022/07/12 14:48:21;;;;;;;3.35;0.90;;;;;;;29.88;45.78;101331.78;8264817;28;20057;-56
2022/07/12 14:52:22;;;;;;;3.53;0.90;;;;;;;30.37;45.98;101336.69;8267320;28;20042;-55
2022/07/12 14:56:22;;;;;;;3.15;1.10;;;;;;;30.24;43.87;101331.44;8267093;28;20061;-56
2022/07/12 15:00:23;;;;;;;1.13;1.02;;;;;;;29.89;44.15;101325.09;8262697;28;20050;-56
2022/07/12 15:04:23;;;;;;;4.25;0.90;;;;;;;29.83;43.79;101326.13;8268912;28;20038;-56
2022/07/12 15:08:23;;;;;;;3.08;1.15;;;;;;;29.88;43.21;101317.84;8264374;28;20058;-54
2022/07/12 15:12:25;;;;;;;2.78;0.70;;;;;;;29.89;44.33;101324.28;8269420;28;20041;-55
2022/07/12 15:16:25;;;;;;;2.75;1.02;;;;;;;30.08;41.83;101315.47;8271911;28;20049;-55
2022/07/12 15:20:26;;;;;;;2.88;0.70;;;;;;;29.80;40.22;101304.28;8273212;28;20045;-55
2022/07/12 15:24:26;;;;;;;3.50;0.68;;;;;;;29.97;41.32;101305.19;8263353;28;20494;-55
2022/07/12 15:28:29;;;;;;;4.78;0.82;;;;;;;29.98;43.05;101304.09;8270129;28;20042;-55
2022/07/12 15:32:29;;;;;;;2.17;0.82;;;;;;;30.14;41.83;101300.53;8263609;28;20068;-56
2022/07/12 15:36:30;;;;;;;1.00;0.70;;;;;;;30.16;41.79;101306.69;8259740;28;20362;-56
2022/07/12 15:40:34;;;;;;;2.22;0.95;;;;;;;29.88;42.43;101295.53;8270845;28;20305;-54
2022/07/12 15:44:34;;;;;;;2.90;0.82;;;;;;;29.78;43.15;101298.09;8264399;28;20398;-56
2022/07/12 15:48:36;;;;;;;2.40;0.80;;;;;;;29.93;42.43;101298.44;8278754;28;20071;-56
2022/07/12 15:53:39;;;;;;;1.35;0.90;;;;;;;29.83;42.61;101298.22;8269349;28;20038;-54
2022/07/12 15:56:57;;;;;;;3.00;1.00;;;;;;;29.71;42.96;101290.97;8274982;28;20446;-56
2022/07/12 16:00:58;;;;;;;3.08;1.02;;;;;;;29.58;43.81;101283.69;8269433;28;20050;-56
2022/07/12 16:04:59;;;;;;;2.63;0.80;;;;;;;29.79;42.57;101279.44;8272395;28;20037;-55
2022/07/12 16:09:00;;;;;;;3.20;0.90;;;;;;;30.09;42.60;101280.03;8277661;28;20124;-55
2022/07/12 16:13:01;;;;;;;4.72;1.13;;;;;;;29.98;42.86;101281.75;8278585;28;20038;-56
2022/07/12 16:17:01;;;;;;;1.93;0.80;;;;;;;30.07;42.17;101277.47;8271141;28;20038;-55
2022/07/12 16:21:02;;;;;;;2.60;0.70;;;;;;;30.23;42.72;101282.31;8266666;28;20405;-56
2022/07/12 16:25:03;;;;;;;2.47;0.80;;;;;;;30.04;43.16;101272.41;8269068;28;20561;-55
2022/07/12 16:29:03;;;;;;;5.63;1.00;;;;;;;29.88;42.77;101273.22;8269313;28;20453;-54
2022/07/12 16:33:04;;;;;;;6.35;0.88;;;;;;;29.89;43.59;101274.88;8270933;28;20116;-56
2022/07/12 16:37:04;;;;;;;1.80;0.80;;;;;;;29.74;42.85;101260.66;8273285;28;20525;-55
2022/07/12 16:41:05;;;;;;;1.92;0.80;;;;;;;29.78;43.55;101267.44;8274519;28;20049;-55
2022/07/12 16:45:06;;;;;;;4.50;0.90;;;;;;;29.69;44.37;101262.47;8270229;28;20441;-55
2022/07/12 16:49:06;;;;;;;3.03;1.05;;;;;;;29.79;45.37;101257.13;8270387;28;20084;-56
2022/07/12 16:53:08;;;;;;;2.10;0.80;;;;;;;29.75;44.32;101253.13;8270208;28;20125;-56
2022/07/12 16:57:08;;;;;;;2.40;0.73;;;;;;;29.60;45.29;101253.66;8275542;28;20073;-56
2022/07/12 17:01:08;;;;;;;1.53;0.77;;;;;;;29.51;45.28;101249.53;8261276;28;20046;-56
2022/07/12 17:05:09;;;;;;;1.10;1.00;;;;;;;29.61;44.95;101248.91;8274489;28;20274;-56
2022/07/12 17:09:10;;;;;;;5.07;0.90;;;;;;;29.51;43.69;101260.69;8276372;28;20491;-56
2022/07/12 17:13:10;;;;;;;2.80;0.93;;;;;;;29.52;42.56;101251.22;8275273;28;20041;-56
2022/07/12 17:17:11;;;;;;;3.70;0.90;;;;;;;29.40;47.54;101253.19;8274784;28;20117;-56
2022/07/12 17:21:12;;;;;;;5.97;0.90;;;;;;;29.24;48.80;101250.34;8273218;28;20458;-55
2022/07/12 17:25:12;;;;;;;7.03;1.10;;;;;;;29.16;47.61;101253.50;8276324;28;20704;-56
2022/07/12 17:29:13;;;;;;;3.67;1.00;;;;;;;29.09;47.51;101242.47;8276745;28;20344;-56
2022/07/12 17:33:13;;;;;;;3.10;1.13;;;;;;;28.83;48.76;101245.75;8265837;28;20659;-56
2022/07/12 17:37:14;;;;;;;3.90;1.00;;;;;;;28.72;49.94;101248.53;8300579;28;20608;-55
2022/07/12 17:41:15;;;;;;;4.90;1.30;;;;;;;28.71;48.56;101242.09;8271343;28;20042;-55
2022/07/12 17:45:15;;;;;;;2.55;1.05;;;;;;;28.90;46.97;101237.28;8276804;28;20042;-54
2022/07/12 17:49:16;;;;;;;3.17;1.15;;;;;;;28.95;50.24;101243.81;8267725;28;20278;-56
2022/07/12 17:53:16;;;;;;;5.25;1.33;;;;;;;28.77;50.52;101243.94;8263018;28;20038;-57
2022/07/12 17:57:17;;;;;;;8.77;1.80;;;;;;;28.85;47.91;101238.00;8269933;28;20041;-56
2022/07/12 18:01:20;;;;;;;3.72;1.20;;;;;;;28.75;48.28;101248.88;8274300;28;20338;-57
2022/07/12 18:05:20;;;;;;;3.97;1.33;;;;;;;28.51;53.29;101247.16;8269967;28;24773;-53
2022/07/12 18:09:21;;;;;;;6.28;1.27;;;;;;;28.59;51.17;101239.31;8269032;28;20129;-57
2022/07/12 18:14:53;;;;;;;11.30;1.50;;;;;;;28.55;50.52;101249.22;8271802;28;20057;-56
2022/07/12 18:18:13;;;;;;;7.25;0.95;;;;;;;28.39;52.00;101243.50;8262372;28;20121;-57
2022/07/12 18:22:02;;;;;;;5.85;1.35;;;;;;;28.28;54.35;101249.88;8267945;28;20077;-56
2022/07/12 18:26:03;;;;;;;7.13;1.20;;;;;;;28.20;56.69;101241.88;8258369;28;20026;-57
2022/07/12 18:30:04;;;;;;;6.20;1.20;;;;;;;27.57;60.78;101247.03;8258686;28;20072;-57
2022/07/12 18:34:05;;;;;;;5.07;1.10;;;;;;;27.67;57.22;101244.56;8267623;28;20471;-55
2022/07/12 18:38:06;;;;;;;1.73;1.20;;;;;;;27.58;56.25;101247.88;8269764;28;20038;-56